createdAt,value
2022-10-30T00:01:43.739Z,71.43
2022-10-30T00:04:13.600Z,71.64
2022-10-30T00:06:43.038Z,71.31
2022-10-30T00:09:12.907Z,71.14
2022-10-30T00:11:43.361Z,71.02
2022-10-30T00:14:13.837Z,71.21
2022-10-30T00:16:43.633Z,71.25
2022-10-30T00:19:13.336Z,70.94
2022-10-30T00:21:43.069Z,70.94
2022-10-30T00:24:12.806Z,70.65
2022-10-30T00:26:42.540Z,71.59
2022-10-30T00:29:12.270Z,70.77
2022-10-30T00:31:42.582Z,70.66
2022-10-30T00:34:12.302Z,70.47
2022-10-30T00:36:42.132Z,70.93
2022-10-30T00:39:11.947Z,71.09
2022-10-30T00:41:41.920Z,72.22
2022-10-30T00:44:33.714Z,71.94
2022-10-30T00:47:06.318Z,71.54
2022-10-30T00:49:39.100Z,71.58
2022-10-30T00:52:11.944Z,71.66
2022-10-30T00:54:42.393Z,71.12
2022-10-30T00:57:12.196Z,71.10
2022-10-30T00:59:42.394Z,71.21
2022-10-30T01:02:12.805Z,71.38
2022-10-30T01:04:44.403Z,71.22
2022-10-30T01:07:17.779Z,72.25
2022-10-30T01:09:48.544Z,71.47
2022-10-30T01:12:18.056Z,71.95
2022-10-30T01:14:50.902Z,71.64
2022-10-30T01:17:30.666Z,71.36
2022-10-30T01:20:18.390Z,71.49
2022-10-30T01:23:00.396Z,71.59
2022-10-30T01:25:58.729Z,71.38
2022-10-30T01:28:49.223Z,71.42
2022-10-30T01:31:38.076Z,71.82
2022-10-30T01:34:27.982Z,72.64
2022-10-30T01:37:06.602Z,71.82
2022-10-30T01:39:40.145Z,73.29
2022-10-30T01:42:13.776Z,73.01
2022-10-30T01:44:43.602Z,72.13
2022-10-30T01:47:18.082Z,72.40
2022-10-30T01:50:08.695Z,72.25
2022-10-30T01:52:50.109Z,72.59
2022-10-30T01:55:28.845Z,73.25
2022-10-30T01:58:20.837Z,73.27
2022-10-30T02:00:55.415Z,72.63
2022-10-30T02:03:26.537Z,72.45
2022-10-30T02:05:56.506Z,72.60
2022-10-30T02:08:26.472Z,72.69
2022-10-30T02:10:57.701Z,72.99
2022-10-30T02:13:39.122Z,73.31
2022-10-30T02:16:11.710Z,72.69
2022-10-30T02:18:41.649Z,72.69
2022-10-30T02:21:11.464Z,72.93
2022-10-30T02:23:41.392Z,73.21
2022-10-30T02:26:11.511Z,73.08
2022-10-30T02:28:41.280Z,73.06
2022-10-30T02:31:11.017Z,73.54
2022-10-30T02:33:49.885Z,73.54
2022-10-30T02:36:19.732Z,73.45
2022-10-30T02:38:49.537Z,73.24
2022-10-30T02:41:19.341Z,73.10
2022-10-30T02:43:49.078Z,73.38
2022-10-30T02:46:18.824Z,73.36
2022-10-30T02:48:48.751Z,73.66
2022-10-30T02:51:18.759Z,73.61
2022-10-30T02:53:48.573Z,74.58
2022-10-30T02:56:18.166Z,74.20
2022-10-30T02:58:48.076Z,74.08
2022-10-30T03:01:20.380Z,74.28
2022-10-30T03:03:50.553Z,74.73
2022-10-30T03:06:20.247Z,74.31
2022-10-30T03:08:50.062Z,74.32
2022-10-30T03:11:21.353Z,75.10
2022-10-30T03:13:51.432Z,75.09
2022-10-30T03:16:24.903Z,74.53
2022-10-30T03:18:54.748Z,74.74
2022-10-30T03:21:26.833Z,74.88
2022-10-30T03:23:56.847Z,74.66
2022-10-30T03:26:26.312Z,74.64
2022-10-30T03:29:08.967Z,74.51
2022-10-30T03:31:38.695Z,75.52
2022-10-30T03:34:16.005Z,75.37
2022-10-30T03:36:45.804Z,75.86
2022-10-30T03:39:15.818Z,75.76
2022-10-30T03:41:46.248Z,76.09
2022-10-30T03:44:15.982Z,75.69
2022-10-30T03:46:46.099Z,75.69
2022-10-30T03:49:23.795Z,75.08
2022-10-30T03:51:53.542Z,75.89
2022-10-30T03:54:24.158Z,76.27
2022-10-30T03:56:53.946Z,76.55
2022-10-30T03:59:24.164Z,75.97
2022-10-30T04:01:56.249Z,76.57
2022-10-30T04:04:26.154Z,76.57
2022-10-30T04:06:55.884Z,76.22
2022-10-30T04:09:25.692Z,75.75
2022-10-30T04:11:55.972Z,75.53
2022-10-30T04:14:25.544Z,75.89
2022-10-30T04:16:55.057Z,76.14
2022-10-30T04:19:24.791Z,75.82
2022-10-30T04:21:55.105Z,75.82
2022-10-30T04:24:25.205Z,76.35
2022-10-30T04:26:56.781Z,76.26
2022-10-30T04:29:26.508Z,75.84
2022-10-30T04:31:56.311Z,76.34
2022-10-30T04:34:25.821Z,75.70
2022-10-30T04:36:55.559Z,75.98
2022-10-30T04:39:25.577Z,76.46
2022-10-30T04:41:57.009Z,76.80
2022-10-30T04:44:28.515Z,76.53
2022-10-30T04:46:58.549Z,76.51
2022-10-30T04:49:28.572Z,77.18
2022-10-30T04:51:58.315Z,76.71
2022-10-30T04:54:28.620Z,77.09
2022-10-30T04:56:58.417Z,76.81
2022-10-30T04:59:28.226Z,76.59
2022-10-30T05:01:58.090Z,76.26
2022-10-30T05:04:28.864Z,76.24
2022-10-30T05:06:58.683Z,76.31
2022-10-30T05:09:28.159Z,76.02
2022-10-30T05:11:59.165Z,76.67
2022-10-30T05:14:32.543Z,75.78
2022-10-30T05:17:02.700Z,76.03
2022-10-30T05:19:32.474Z,77.03
2022-10-30T05:22:02.242Z,77.04
2022-10-30T05:24:32.056Z,77.35
2022-10-30T05:27:01.797Z,77.12
2022-10-30T05:29:31.820Z,77.19
2022-10-30T05:32:01.674Z,77.56
2022-10-30T05:34:42.137Z,78.08
2022-10-30T05:37:11.939Z,77.90
2022-10-30T05:39:42.955Z,77.13
2022-10-30T05:42:14.422Z,77.13
2022-10-30T05:45:00.316Z,77.37
2022-10-30T05:47:18.552Z,77.53
2022-10-30T05:49:50.008Z,78.05
2022-10-30T05:52:21.233Z,77.87
2022-10-30T05:54:52.045Z,77.44
2022-10-30T05:57:34.497Z,78.67
2022-10-30T06:00:07.093Z,78.23
2022-10-30T06:02:38.622Z,77.79
2022-10-30T06:05:08.513Z,77.99
2022-10-30T06:07:38.528Z,78.77
2022-10-30T06:10:11.091Z,77.92
2022-10-30T06:12:42.559Z,77.92
2022-10-30T06:15:23.539Z,78.66
2022-10-30T06:17:53.589Z,78.66
2022-10-30T06:20:27.361Z,78.30
2022-10-30T06:23:15.216Z,78.12
2022-10-30T06:25:49.971Z,79.91
2022-10-30T06:28:27.512Z,79.23
2022-10-30T06:30:57.717Z,79.19
2022-10-30T06:33:27.525Z,78.71
2022-10-30T06:35:57.530Z,78.44
2022-10-30T06:38:27.319Z,78.50
2022-10-30T06:40:58.034Z,78.07
2022-10-30T06:43:29.715Z,77.95
2022-10-30T06:46:01.250Z,80.25
2022-10-30T06:48:32.821Z,79.29
2022-10-30T06:51:04.411Z,78.13
2022-10-30T06:53:35.926Z,77.81
2022-10-30T06:56:21.488Z,78.75
2022-10-30T06:58:56.117Z,79.45
2022-10-30T07:01:39.079Z,79.90
2022-10-30T07:04:22.365Z,79.92
2022-10-30T07:06:52.171Z,80.10
2022-10-30T07:09:23.596Z,79.83
2022-10-30T07:11:56.709Z,79.86
2022-10-30T07:14:26.502Z,79.96
2022-10-30T07:16:57.972Z,79.74
2022-10-30T07:19:28.719Z,79.82
2022-10-30T07:21:59.036Z,80.00
2022-10-30T07:24:28.868Z,79.31
2022-10-30T07:27:00.626Z,79.31
2022-10-30T07:29:38.044Z,79.37
2022-10-30T07:32:15.224Z,79.26
2022-10-30T07:34:55.730Z,79.15
2022-10-30T07:37:43.618Z,79.23
2022-10-30T07:40:15.195Z,79.23
2022-10-30T07:42:49.230Z,78.46
2022-10-30T07:45:36.976Z,78.25
2022-10-30T07:48:24.050Z,78.59
2022-10-30T07:50:58.208Z,78.43
2022-10-30T07:53:28.640Z,77.76
2022-10-30T07:56:00.111Z,78.00
2022-10-30T07:58:45.796Z,77.70
2022-10-30T08:01:17.257Z,77.51
2022-10-30T08:03:47.640Z,77.43
2022-10-30T08:06:27.081Z,77.20
2022-10-30T08:08:56.239Z,76.67
2022-10-30T08:11:27.999Z,76.96
2022-10-30T08:13:58.149Z,76.55
2022-10-30T08:16:27.988Z,76.25
2022-10-30T08:19:03.108Z,76.39
2022-10-30T08:21:33.191Z,75.84
2022-10-30T08:24:06.340Z,75.42
2022-10-30T08:26:36.925Z,76.05
2022-10-30T08:29:06.835Z,75.29
2022-10-30T08:31:36.877Z,75.24
2022-10-30T08:34:09.904Z,74.95
2022-10-30T08:36:43.945Z,74.67
2022-10-30T08:39:12.804Z,74.53
2022-10-30T08:41:47.212Z,73.88
2022-10-30T08:44:16.958Z,73.46
2022-10-30T08:47:04.553Z,73.50
2022-10-30T08:49:34.362Z,73.37
2022-10-30T08:52:10.667Z,73.07
2022-10-30T08:54:42.241Z,73.07
2022-10-30T08:57:12.074Z,73.24
2022-10-30T08:59:41.923Z,72.25
2022-10-30T09:02:13.575Z,71.67
2022-10-30T09:05:00.832Z,70.73
2022-10-30T09:07:47.456Z,70.73
2022-10-30T09:10:24.520Z,71.00
2022-10-30T09:13:02.349Z,69.72
2022-10-30T09:15:32.454Z,69.79
2022-10-30T09:18:04.308Z,69.96
2022-10-30T09:20:34.151Z,69.06
2022-10-30T09:23:04.452Z,68.81
2022-10-30T09:25:34.522Z,68.87
2022-10-30T09:28:08.044Z,67.83
2022-10-30T09:30:39.503Z,67.09
2022-10-30T09:33:10.673Z,65.89
2022-10-30T09:35:44.893Z,65.41
2022-10-30T09:38:14.644Z,65.90
2022-10-30T09:41:05.705Z,65.00
2022-10-30T09:43:56.322Z,64.70
2022-10-30T09:46:43.958Z,63.35
2022-10-30T09:49:40.116Z,63.35
2022-10-30T09:52:36.032Z,63.39
2022-10-30T09:55:27.966Z,62.58
2022-10-30T09:58:01.047Z,62.58
2022-10-30T10:00:42.124Z,62.87
2022-10-30T10:03:28.483Z,62.87
2022-10-30T10:06:03.353Z,63.15
2022-10-30T10:08:46.502Z,63.15
2022-10-30T10:11:40.088Z,62.41
2022-10-30T10:14:26.286Z,62.60
2022-10-30T10:16:58.646Z,61.10
2022-10-30T10:19:31.231Z,60.19
2022-10-30T10:22:04.021Z,60.48
2022-10-30T10:24:39.441Z,60.06
2022-10-30T10:27:17.877Z,60.40
2022-10-30T10:30:08.383Z,62.29
2022-10-30T10:32:52.826Z,62.29
2022-10-30T10:35:37.447Z,62.52
2022-10-30T10:38:14.014Z,63.08
2022-10-30T10:40:46.805Z,61.73
2022-10-30T10:43:37.308Z,62.91
2022-10-30T10:46:39.138Z,60.50
2022-10-30T10:49:26.603Z,61.33
2022-10-30T10:51:59.397Z,60.31
2022-10-30T10:54:31.975Z,60.54
2022-10-30T10:57:03.477Z,59.45
2022-10-30T10:59:39.077Z,60.93
2022-10-30T11:02:31.878Z,59.83
2022-10-30T11:05:07.209Z,59.82
2022-10-30T11:07:43.038Z,59.18
2022-10-30T11:10:16.105Z,58.24
2022-10-30T11:12:45.923Z,59.19
2022-10-30T11:15:24.464Z,60.30
2022-10-30T11:18:08.688Z,58.58
2022-10-30T11:20:47.263Z,59.31
2022-10-30T11:23:41.103Z,58.38
2022-10-30T11:26:23.730Z,60.09
2022-10-30T11:29:15.968Z,59.36
2022-10-30T11:31:47.180Z,59.07
2022-10-30T11:34:22.759Z,58.60
2022-10-30T11:36:54.293Z,58.80
2022-10-30T11:39:32.642Z,58.70
2022-10-30T11:42:07.810Z,57.01
2022-10-30T11:44:43.418Z,56.96
2022-10-30T11:47:15.632Z,57.38
2022-10-30T11:49:51.401Z,59.15
2022-10-30T11:52:23.534Z,57.27
2022-10-30T11:54:59.325Z,58.23
2022-10-30T11:57:40.577Z,56.76
2022-10-30T12:00:28.862Z,57.06
2022-10-30T12:03:06.219Z,57.51
2022-10-30T12:05:45.095Z,57.56
2022-10-30T12:08:22.736Z,57.49
2022-10-30T12:10:58.310Z,57.73
2022-10-30T12:13:29.928Z,57.26
2022-10-30T12:16:17.391Z,57.30
2022-10-30T12:18:58.897Z,58.38
2022-10-30T12:21:31.264Z,58.56
2022-10-30T12:24:05.400Z,57.95
2022-10-30T12:26:37.002Z,56.88
2022-10-30T12:29:12.516Z,57.58
2022-10-30T12:31:48.181Z,57.58
2022-10-30T12:34:48.262Z,56.52
2022-10-30T12:37:23.620Z,57.63
2022-10-30T12:40:14.715Z,58.25
2022-10-30T12:42:59.426Z,57.81
2022-10-30T12:45:44.364Z,57.96
2022-10-30T12:48:26.393Z,58.20
2022-10-30T12:51:26.082Z,59.66
2022-10-30T12:54:07.650Z,59.28
2022-10-30T12:56:42.681Z,58.48
2022-10-30T12:59:33.381Z,58.59
2022-10-30T13:02:25.568Z,58.75
2022-10-30T13:04:58.378Z,58.49
2022-10-30T13:07:39.719Z,58.79
2022-10-30T13:10:19.445Z,58.70
2022-10-30T13:12:54.126Z,58.77
2022-10-30T13:15:26.951Z,58.26
2022-10-30T13:18:02.646Z,58.38
2022-10-30T13:20:32.617Z,57.16
2022-10-30T13:23:05.716Z,55.85
2022-10-30T13:25:56.628Z,54.74
2022-10-30T13:28:46.821Z,55.12
2022-10-30T13:31:39.085Z,56.13
2022-10-30T13:34:31.764Z,57.02
2022-10-30T13:37:10.110Z,56.28
2022-10-30T13:39:48.835Z,56.28
2022-10-30T13:42:41.724Z,57.11
2022-10-30T13:45:28.993Z,56.22
2022-10-30T13:48:19.170Z,57.32
2022-10-30T13:50:52.295Z,57.32
2022-10-30T13:53:24.882Z,57.75
2022-10-30T13:56:00.175Z,57.47
2022-10-30T14:01:29.954Z,57.81
2022-10-30T14:04:17.516Z,57.90
2022-10-30T14:06:53.134Z,58.62
2022-10-30T14:10:02.413Z,58.52
2022-10-30T14:12:59.667Z,58.15
2022-10-30T14:15:32.590Z,58.15
2022-10-30T14:18:17.496Z,58.65
2022-10-30T14:20:52.232Z,58.75
2022-10-30T14:23:24.965Z,59.38
2022-10-30T14:26:09.354Z,59.05
2022-10-30T14:28:46.555Z,58.75
2022-10-30T14:31:36.798Z,58.63
2022-10-30T14:34:11.031Z,58.69
2022-10-30T14:36:46.265Z,58.95
2022-10-30T14:39:19.085Z,58.16
2022-10-30T14:42:00.797Z,58.21
2022-10-30T14:44:54.544Z,58.18
2022-10-30T14:47:51.438Z,58.57
2022-10-30T14:50:41.988Z,58.09
2022-10-30T14:53:31.059Z,58.98
2022-10-30T14:56:12.838Z,58.19
2022-10-30T14:58:42.918Z,58.19
2022-10-30T15:01:27.597Z,58.44
2022-10-30T15:04:21.437Z,58.18
2022-10-30T15:06:53.971Z,57.76
2022-10-30T15:09:50.409Z,58.75
2022-10-30T15:12:40.819Z,58.72
2022-10-30T15:15:16.913Z,58.14
2022-10-30T15:17:52.306Z,58.07
2022-10-30T15:20:27.012Z,58.86
2022-10-30T15:23:08.316Z,59.23
2022-10-30T15:25:41.104Z,59.35
2022-10-30T15:28:15.139Z,59.44
2022-10-30T15:31:02.469Z,59.66
2022-10-30T15:33:34.889Z,59.82
2022-10-30T15:36:07.232Z,60.08
2022-10-30T15:38:37.347Z,60.22
2022-10-30T15:41:08.230Z,60.74
2022-10-30T15:43:40.884Z,60.81
2022-10-30T15:46:14.974Z,61.39
2022-10-30T15:48:47.598Z,61.79
2022-10-30T15:51:19.966Z,62.06
2022-10-30T15:53:55.487Z,62.63
2022-10-30T15:57:17.877Z,63.03
2022-10-30T15:59:22.099Z,63.43
2022-10-30T16:01:54.621Z,63.79
2022-10-30T16:04:26.594Z,64.01
2022-10-30T16:06:58.458Z,63.88
2022-10-30T16:09:29.546Z,63.60
2022-10-30T16:12:01.292Z,63.57
2022-10-30T16:14:34.313Z,63.98
2022-10-30T16:17:04.414Z,63.54
2022-10-30T16:19:37.545Z,63.42
2022-10-30T16:22:08.965Z,63.67
2022-10-30T16:24:40.624Z,63.64
2022-10-30T16:27:21.412Z,63.88
2022-10-30T16:29:54.767Z,64.35
2022-10-30T16:32:27.622Z,64.35
2022-10-30T16:34:59.941Z,64.46
2022-10-30T16:37:38.474Z,64.34
2022-10-30T16:40:16.917Z,66.17
2022-10-30T16:42:59.095Z,65.93
2022-10-30T16:45:37.752Z,66.95
2022-10-30T16:48:11.777Z,68.99
2022-10-30T16:50:41.970Z,68.77
2022-10-30T16:53:26.266Z,70.58
2022-10-30T16:55:58.583Z,70.38
2022-10-30T16:58:31.270Z,70.32
2022-10-30T17:01:08.218Z,71.32
2022-10-30T17:03:41.546Z,71.98
2022-10-30T17:06:29.509Z,71.98
2022-10-30T17:09:00.796Z,71.78
2022-10-30T17:11:40.835Z,71.76
2022-10-30T17:14:21.401Z,72.31
2022-10-30T17:16:56.705Z,72.61
2022-10-30T17:19:35.005Z,72.07
2022-10-30T17:22:07.212Z,71.33
2022-10-30T17:24:39.370Z,72.33
2022-10-30T17:27:12.128Z,71.07
2022-10-30T17:29:45.302Z,71.08
2022-10-30T17:32:20.726Z,71.24
2022-10-30T17:35:05.505Z,71.68
2022-10-30T17:37:35.114Z,71.09
2022-10-30T17:40:04.950Z,70.97
2022-10-30T17:42:35.080Z,71.69
2022-10-30T17:45:07.063Z,71.06
2022-10-30T17:47:37.889Z,70.90
2022-10-30T17:50:10.251Z,70.82
2022-10-30T17:52:40.052Z,70.73
2022-10-30T17:55:21.595Z,70.77
2022-10-30T17:57:51.396Z,71.35
2022-10-30T18:00:20.996Z,70.51
2022-10-30T18:02:50.795Z,71.29
2022-10-30T18:05:23.417Z,71.29
2022-10-30T18:07:53.153Z,71.27
2022-10-30T18:10:22.989Z,72.11
2022-10-30T18:12:53.014Z,72.11
2022-10-30T18:15:25.811Z,72.14
2022-10-30T18:17:55.715Z,71.73
2022-10-30T18:20:26.149Z,71.55
2022-10-30T18:22:56.281Z,71.35
2022-10-30T18:25:29.190Z,71.28
2022-10-30T18:27:59.008Z,71.42
2022-10-30T18:30:29.401Z,71.52
2022-10-30T18:32:59.610Z,71.14
2022-10-30T18:35:37.898Z,71.60
2022-10-30T18:38:08.420Z,71.60
2022-10-30T18:40:38.191Z,70.82
2022-10-30T18:43:11.347Z,70.87
2022-10-30T18:45:43.733Z,71.14
2022-10-30T18:48:14.077Z,71.96
2022-10-30T18:50:44.622Z,71.64
2022-10-30T18:53:19.090Z,71.71
2022-10-30T18:55:49.716Z,71.48
2022-10-30T18:58:19.506Z,71.92
2022-10-30T19:01:11.196Z,71.99
2022-10-30T19:03:20.847Z,71.92
2022-10-30T19:05:51.635Z,72.13
2022-10-30T19:08:21.341Z,72.55
2022-10-30T19:13:23.316Z,72.19
2022-10-30T19:16:00.319Z,72.40
2022-10-30T19:18:30.667Z,72.17
2022-10-30T19:21:05.847Z,72.47
2022-10-30T19:23:31.890Z,72.66
2022-10-30T19:26:01.724Z,72.93
2022-10-30T19:28:32.607Z,73.15
2022-10-30T19:31:02.627Z,72.84
2022-10-30T19:33:32.660Z,73.18
2022-10-30T19:36:07.596Z,72.42
2022-10-30T19:38:37.339Z,72.70
2022-10-30T19:41:08.767Z,73.40
2022-10-30T19:43:38.535Z,73.78
2022-10-30T19:46:09.649Z,73.36
2022-10-30T19:51:11.744Z,73.91
2022-10-30T19:53:42.084Z,74.37
2022-10-30T19:56:15.682Z,74.60
2022-10-30T19:58:45.725Z,74.98
2022-10-30T20:01:16.330Z,74.82
2022-10-30T20:03:46.298Z,75.19
2022-10-30T20:06:16.574Z,75.17
2022-10-30T20:08:46.301Z,75.76
2022-10-30T20:11:16.141Z,75.25
2022-10-30T20:13:48.105Z,75.32
2022-10-30T20:16:17.459Z,74.63
2022-10-30T20:18:47.516Z,74.56
2022-10-30T20:21:17.552Z,74.98
2022-10-30T20:23:47.408Z,75.68
2022-10-30T20:26:30.391Z,75.58
2022-10-30T20:29:03.382Z,75.69
2022-10-30T20:31:33.135Z,75.11
2022-10-30T20:34:03.410Z,75.36
2022-10-30T20:36:33.163Z,75.42
2022-10-30T20:39:03.097Z,75.30
2022-10-30T20:41:33.577Z,75.30
2022-10-30T20:44:03.144Z,74.86
2022-10-30T20:46:33.018Z,74.92
2022-10-30T20:49:16.829Z,75.40
2022-10-30T20:51:34.541Z,75.59
2022-10-30T20:54:04.351Z,75.84
2022-10-30T20:56:34.222Z,75.11
2022-10-30T20:59:03.980Z,75.19
2022-10-30T21:01:33.867Z,75.40
2022-10-30T21:04:03.815Z,75.75
2022-10-30T21:06:33.649Z,76.06
2022-10-30T21:09:03.390Z,75.70
2022-10-30T21:11:33.139Z,76.26
2022-10-30T21:14:02.888Z,76.64
2022-10-30T21:16:32.343Z,76.04
2022-10-30T21:19:02.105Z,76.30
2022-10-30T21:21:31.854Z,76.09
2022-10-30T21:24:01.595Z,75.56
2022-10-30T21:26:31.380Z,77.19
2022-10-30T21:29:01.393Z,75.96
2022-10-30T21:31:31.164Z,75.96
2022-10-30T21:34:03.364Z,75.94
2022-10-30T21:36:33.407Z,76.32
2022-10-30T21:39:03.137Z,77.53
2022-10-30T21:41:33.041Z,77.27
2022-10-30T21:44:03.071Z,76.91
2022-10-30T21:46:33.071Z,76.91
2022-10-30T21:49:07.578Z,77.34
2022-10-30T21:51:37.283Z,75.70
2022-10-30T21:54:07.448Z,76.46
2022-10-30T21:56:37.525Z,76.46
2022-10-30T21:59:07.426Z,76.03
2022-10-30T22:01:38.741Z,76.03
2022-10-30T22:04:11.242Z,76.63
2022-10-30T22:06:43.708Z,76.63
2022-10-30T22:09:16.124Z,76.80
2022-10-30T22:11:46.233Z,76.80
2022-10-30T22:14:17.099Z,76.36
2022-10-30T22:16:46.902Z,76.42
2022-10-30T22:19:16.704Z,76.35
2022-10-30T22:21:46.537Z,77.74
2022-10-30T22:24:17.241Z,77.08
2022-10-30T22:26:48.004Z,77.08
2022-10-30T22:29:18.042Z,78.56
2022-10-30T22:31:47.933Z,78.24
2022-10-30T22:34:17.421Z,77.49
2022-10-30T22:36:47.152Z,77.15
2022-10-30T22:39:17.256Z,77.55
2022-10-30T22:41:47.140Z,78.62
2022-10-30T22:44:18.780Z,78.62
2022-10-30T22:46:48.812Z,78.22
2022-10-30T22:49:18.558Z,78.30
2022-10-30T22:51:48.576Z,78.00
2022-10-30T22:54:18.612Z,77.65
2022-10-30T22:56:48.640Z,77.65
2022-10-30T22:59:18.661Z,78.42
2022-10-30T23:01:48.548Z,78.42
2022-10-30T23:04:18.306Z,77.49
2022-10-30T23:06:48.403Z,77.63
2022-10-30T23:09:22.066Z,77.36
2022-10-30T23:11:51.921Z,77.79
2022-10-30T23:14:21.370Z,77.47
2022-10-30T23:16:50.847Z,77.72
2022-10-30T23:19:20.581Z,77.87
2022-10-30T23:21:50.621Z,78.25
2022-10-30T23:24:20.254Z,78.53
2022-10-30T23:26:50.072Z,77.98
2022-10-30T23:29:20.883Z,77.98
2022-10-30T23:31:50.914Z,78.32
2022-10-30T23:34:20.679Z,78.55
2022-10-30T23:36:50.403Z,78.39
2022-10-30T23:39:20.169Z,77.50
2022-10-30T23:41:49.969Z,77.74
2022-10-30T23:44:19.489Z,78.89
2022-10-30T23:46:49.288Z,77.93
2022-10-30T23:49:19.051Z,77.76
2022-10-30T23:51:48.843Z,78.15
2022-10-30T23:54:18.576Z,78.81
2022-10-30T23:56:48.515Z,78.81
2022-10-30T23:59:18.280Z,78.62
